sensor_id;sensor_type;location;lat;lon;timestamp;P1;durP1;ratioP1;P2;durP2;ratioP2
24084;SDS011;12268;52.110;5.548;2022-12-07T00:00:29;9.50;;;5.18;;
24084;SDS011;12268;52.110;5.548;2022-12-07T00:02:55;8.15;;;5.28;;
24084;SDS011;12268;52.110;5.548;2022-12-07T00:05:20;7.20;;;4.82;;
24084;SDS011;12268;52.110;5.548;2022-12-07T00:07:46;8.20;;;4.90;;
24084;SDS011;12268;52.110;5.548;2022-12-07T00:10:11;9.90;;;5.20;;
24084;SDS011;12268;52.110;5.548;2022-12-07T00:12:37;12.65;;;5.50;;
24084;SDS011;12268;52.110;5.548;2022-12-07T00:15:02;6.55;;;4.90;;
24084;SDS011;12268;52.110;5.548;2022-12-07T00:17:28;10.05;;;5.15;;
24084;SDS011;12268;52.110;5.548;2022-12-07T00:19:54;10.30;;;4.97;;
24084;SDS011;12268;52.110;5.548;2022-12-07T00:22:19;10.70;;;5.13;;
24084;SDS011;12268;52.110;5.548;2022-12-07T00:24:45;10.10;;;5.50;;
24084;SDS011;12268;52.110;5.548;2022-12-07T00:27:10;9.50;;;5.22;;
24084;SDS011;12268;52.110;5.548;2022-12-07T00:29:36;11.15;;;6.20;;
24084;SDS011;12268;52.110;5.548;2022-12-07T00:32:01;10.50;;;6.13;;
24084;SDS011;12268;52.110;5.548;2022-12-07T00:34:27;8.98;;;5.30;;
24084;SDS011;12268;52.110;5.548;2022-12-07T00:36:53;10.02;;;5.72;;
24084;SDS011;12268;52.110;5.548;2022-12-07T00:39:19;8.63;;;5.57;;
24084;SDS011;12268;52.110;5.548;2022-12-07T00:41:44;11.60;;;5.35;;
24084;SDS011;12268;52.110;5.548;2022-12-07T00:44:10;12.15;;;5.85;;
24084;SDS011;12268;52.110;5.548;2022-12-07T00:46:35;9.05;;;5.68;;
24084;SDS011;12268;52.110;5.548;2022-12-07T00:49:01;10.63;;;5.35;;
24084;SDS011;12268;52.110;5.548;2022-12-07T00:51:26;8.95;;;4.97;;
24084;SDS011;12268;52.110;5.548;2022-12-07T00:53:52;10.77;;;5.28;;
24084;SDS011;12268;52.110;5.548;2022-12-07T00:56:19;8.38;;;4.60;;
24084;SDS011;12268;52.110;5.548;2022-12-07T00:58:53;14.35;;;5.30;;
24084;SDS011;12268;52.110;5.548;2022-12-07T01:01:27;10.02;;;5.35;;
24084;SDS011;12268;52.110;5.548;2022-12-07T01:03:54;13.02;;;5.93;;
24084;SDS011;12268;52.110;5.548;2022-12-07T01:06:20;7.55;;;5.03;;
24084;SDS011;12268;52.110;5.548;2022-12-07T01:08:50;12.15;;;4.90;;
24084;SDS011;12268;52.110;5.548;2022-12-07T01:11:17;12.57;;;6.03;;
24084;SDS011;12268;52.110;5.548;2022-12-07T01:13:44;12.50;;;5.78;;
24084;SDS011;12268;52.110;5.548;2022-12-07T01:16:11;12.32;;;5.63;;
24084;SDS011;12268;52.110;5.548;2022-12-07T01:18:38;10.43;;;5.95;;
24084;SDS011;12268;52.110;5.548;2022-12-07T01:21:05;12.60;;;6.03;;
24084;SDS011;12268;52.110;5.548;2022-12-07T01:23:34;14.10;;;6.05;;
24084;SDS011;12268;52.110;5.548;2022-12-07T01:26:02;13.15;;;4.95;;
24084;SDS011;12268;52.110;5.548;2022-12-07T01:28:29;10.55;;;5.70;;
24084;SDS011;12268;52.110;5.548;2022-12-07T01:30:56;8.80;;;5.45;;
24084;SDS011;12268;52.110;5.548;2022-12-07T01:33:29;9.48;;;5.72;;
24084;SDS011;12268;52.110;5.548;2022-12-07T01:36:03;14.35;;;5.82;;
24084;SDS011;12268;52.110;5.548;2022-12-07T01:38:30;8.98;;;5.15;;
24084;SDS011;12268;52.110;5.548;2022-12-07T01:40:56;13.60;;;5.82;;
24084;SDS011;12268;52.110;5.548;2022-12-07T01:43:23;11.27;;;4.93;;
24084;SDS011;12268;52.110;5.548;2022-12-07T01:45:50;11.18;;;5.15;;
24084;SDS011;12268;52.110;5.548;2022-12-07T01:48:17;8.52;;;5.38;;
24084;SDS011;12268;52.110;5.548;2022-12-07T01:50:47;11.57;;;5.25;;
24084;SDS011;12268;52.110;5.548;2022-12-07T01:53:15;10.98;;;5.00;;
24084;SDS011;12268;52.110;5.548;2022-12-07T01:55:44;10.57;;;5.47;;
24084;SDS011;12268;52.110;5.548;2022-12-07T01:58:12;8.55;;;5.30;;
24084;SDS011;12268;52.110;5.548;2022-12-07T02:00:39;12.20;;;5.20;;
24084;SDS011;12268;52.110;5.548;2022-12-07T02:03:11;7.18;;;4.63;;
24084;SDS011;12268;52.110;5.548;2022-12-07T02:05:44;8.35;;;5.32;;
24084;SDS011;12268;52.110;5.548;2022-12-07T02:08:11;12.55;;;5.47;;
24084;SDS011;12268;52.110;5.548;2022-12-07T02:10:38;10.25;;;4.72;;
24084;SDS011;12268;52.110;5.548;2022-12-07T02:13:05;14.52;;;5.57;;
24084;SDS011;12268;52.110;5.548;2022-12-07T02:15:41;12.65;;;6.35;;
24084;SDS011;12268;52.110;5.548;2022-12-07T02:18:34;9.65;;;5.28;;
24084;SDS011;12268;52.110;5.548;2022-12-07T02:29:14;7.90;;;4.82;;
24084;SDS011;12268;52.110;5.548;2022-12-07T02:34:47;8.63;;;4.22;;
24084;SDS011;12268;52.110;5.548;2022-12-07T02:37:25;8.10;;;4.70;;
24084;SDS011;12268;52.110;5.548;2022-12-07T02:39:58;10.00;;;3.80;;
24084;SDS011;12268;52.110;5.548;2022-12-07T02:42:36;6.85;;;3.83;;
24084;SDS011;12268;52.110;5.548;2022-12-07T02:45:06;5.38;;;3.30;;
24084;SDS011;12268;52.110;5.548;2022-12-07T02:47:33;12.85;;;3.40;;
24084;SDS011;12268;52.110;5.548;2022-12-07T02:50:02;6.18;;;3.58;;
24084;SDS011;12268;52.110;5.548;2022-12-07T02:52:30;6.63;;;3.67;;
24084;SDS011;12268;52.110;5.548;2022-12-07T02:54:55;8.35;;;3.80;;
24084;SDS011;12268;52.110;5.548;2022-12-07T02:57:32;7.00;;;3.35;;
24084;SDS011;12268;52.110;5.548;2022-12-07T03:00:15;7.95;;;3.38;;
24084;SDS011;12268;52.110;5.548;2022-12-07T03:02:49;8.98;;;3.45;;
24084;SDS011;12268;52.110;5.548;2022-12-07T03:07:59;7.07;;;3.03;;
24084;SDS011;12268;52.110;5.548;2022-12-07T03:13:20;10.45;;;3.13;;
24084;SDS011;12268;52.110;5.548;2022-12-07T03:18:40;5.85;;;3.10;;
24084;SDS011;12268;52.110;5.548;2022-12-07T03:21:34;7.45;;;3.08;;
24084;SDS011;12268;52.110;5.548;2022-12-07T03:24:05;8.80;;;3.40;;
24084;SDS011;12268;52.110;5.548;2022-12-07T03:26:38;8.30;;;3.05;;
24084;SDS011;12268;52.110;5.548;2022-12-07T03:29:14;9.45;;;3.03;;
24084;SDS011;12268;52.110;5.548;2022-12-07T03:31:48;6.10;;;3.22;;
24084;SDS011;12268;52.110;5.548;2022-12-07T03:34:22;12.70;;;3.25;;
24084;SDS011;12268;52.110;5.548;2022-12-07T03:37:05;9.80;;;3.03;;
24084;SDS011;12268;52.110;5.548;2022-12-07T03:42:45;8.88;;;2.97;;
24084;SDS011;12268;52.110;5.548;2022-12-07T03:45:11;7.15;;;2.92;;
24084;SDS011;12268;52.110;5.548;2022-12-07T03:47:49;5.53;;;3.33;;
24084;SDS011;12268;52.110;5.548;2022-12-07T03:50:38;6.03;;;2.67;;
24084;SDS011;12268;52.110;5.548;2022-12-07T03:53:15;6.18;;;3.08;;
24084;SDS011;12268;52.110;5.548;2022-12-07T03:55:48;7.90;;;2.85;;
24084;SDS011;12268;52.110;5.548;2022-12-07T03:58:17;8.15;;;2.95;;
24084;SDS011;12268;52.110;5.548;2022-12-07T04:00:46;7.80;;;2.50;;
24084;SDS011;12268;52.110;5.548;2022-12-07T04:03:12;8.25;;;2.63;;
24084;SDS011;12268;52.110;5.548;2022-12-07T04:05:37;5.68;;;2.53;;
24084;SDS011;12268;52.110;5.548;2022-12-07T04:08:04;8.70;;;3.30;;
24084;SDS011;12268;52.110;5.548;2022-12-07T04:10:29;9.55;;;2.63;;
24084;SDS011;12268;52.110;5.548;2022-12-07T04:12:55;7.68;;;2.72;;
24084;SDS011;12268;52.110;5.548;2022-12-07T04:15:21;7.60;;;2.60;;
24084;SDS011;12268;52.110;5.548;2022-12-07T04:17:46;6.45;;;2.88;;
24084;SDS011;12268;52.110;5.548;2022-12-07T04:20:12;6.05;;;2.40;;
24084;SDS011;12268;52.110;5.548;2022-12-07T04:22:38;6.85;;;2.95;;
24084;SDS011;12268;52.110;5.548;2022-12-07T04:25:03;4.75;;;2.50;;
24084;SDS011;12268;52.110;5.548;2022-12-07T04:27:29;7.13;;;2.80;;
24084;SDS011;12268;52.110;5.548;2022-12-07T04:29:55;9.57;;;2.95;;
24084;SDS011;12268;52.110;5.548;2022-12-07T04:32:21;5.63;;;2.38;;
24084;SDS011;12268;52.110;5.548;2022-12-07T04:34:47;10.63;;;2.63;;
24084;SDS011;12268;52.110;5.548;2022-12-07T04:37:13;7.05;;;2.65;;
24084;SDS011;12268;52.110;5.548;2022-12-07T04:39:38;6.22;;;2.92;;
24084;SDS011;12268;52.110;5.548;2022-12-07T04:42:04;5.00;;;2.50;;
24084;SDS011;12268;52.110;5.548;2022-12-07T04:44:29;7.10;;;2.78;;
24084;SDS011;12268;52.110;5.548;2022-12-07T04:46:56;7.68;;;2.70;;
24084;SDS011;12268;52.110;5.548;2022-12-07T04:49:22;5.47;;;2.65;;
24084;SDS011;12268;52.110;5.548;2022-12-07T04:51:49;7.97;;;2.58;;
24084;SDS011;12268;52.110;5.548;2022-12-07T04:54:15;7.38;;;2.85;;
24084;SDS011;12268;52.110;5.548;2022-12-07T04:56:42;8.15;;;2.70;;
24084;SDS011;12268;52.110;5.548;2022-12-07T04:59:09;8.82;;;2.78;;
24084;SDS011;12268;52.110;5.548;2022-12-07T05:01:39;4.70;;;2.47;;
24084;SDS011;12268;52.110;5.548;2022-12-07T05:04:05;7.80;;;2.85;;
24084;SDS011;12268;52.110;5.548;2022-12-07T05:06:30;11.02;;;2.30;;
24084;SDS011;12268;52.110;5.548;2022-12-07T05:08:56;7.63;;;2.35;;
24084;SDS011;12268;52.110;5.548;2022-12-07T05:11:21;7.93;;;2.75;;
24084;SDS011;12268;52.110;5.548;2022-12-07T05:16:38;7.18;;;2.35;;
24084;SDS011;12268;52.110;5.548;2022-12-07T05:19:04;4.32;;;2.47;;
24084;SDS011;12268;52.110;5.548;2022-12-07T05:21:30;7.00;;;2.22;;
24084;SDS011;12268;52.110;5.548;2022-12-07T05:23:56;6.45;;;2.58;;
24084;SDS011;12268;52.110;5.548;2022-12-07T05:26:21;4.90;;;2.10;;
24084;SDS011;12268;52.110;5.548;2022-12-07T05:28:54;6.82;;;2.20;;
24084;SDS011;12268;52.110;5.548;2022-12-07T05:31:20;4.40;;;1.98;;
24084;SDS011;12268;52.110;5.548;2022-12-07T05:33:46;5.15;;;2.17;;
24084;SDS011;12268;52.110;5.548;2022-12-07T05:36:12;6.07;;;2.15;;
24084;SDS011;12268;52.110;5.548;2022-12-07T05:38:38;3.08;;;2.03;;
24084;SDS011;12268;52.110;5.548;2022-12-07T05:41:04;4.90;;;2.20;;
24084;SDS011;12268;52.110;5.548;2022-12-07T05:43:31;4.90;;;1.88;;
24084;SDS011;12268;52.110;5.548;2022-12-07T05:45:56;8.25;;;2.10;;
24084;SDS011;12268;52.110;5.548;2022-12-07T05:48:23;8.40;;;2.25;;
24084;SDS011;12268;52.110;5.548;2022-12-07T05:50:49;10.20;;;2.33;;
24084;SDS011;12268;52.110;5.548;2022-12-07T05:53:15;6.25;;;1.95;;
24084;SDS011;12268;52.110;5.548;2022-12-07T05:55:41;10.18;;;1.92;;
24084;SDS011;12268;52.110;5.548;2022-12-07T05:58:06;7.93;;;2.20;;
24084;SDS011;12268;52.110;5.548;2022-12-07T06:00:50;12.68;;;2.25;;
24084;SDS011;12268;52.110;5.548;2022-12-07T06:03:16;6.53;;;1.70;;
24084;SDS011;12268;52.110;5.548;2022-12-07T06:05:41;3.88;;;1.75;;
24084;SDS011;12268;52.110;5.548;2022-12-07T06:08:07;4.45;;;1.90;;
24084;SDS011;12268;52.110;5.548;2022-12-07T06:10:32;2.95;;;1.75;;
24084;SDS011;12268;52.110;5.548;2022-12-07T06:12:58;8.00;;;2.00;;
24084;SDS011;12268;52.110;5.548;2022-12-07T06:15:24;6.57;;;2.08;;
24084;SDS011;12268;52.110;5.548;2022-12-07T06:17:49;4.88;;;1.90;;
24084;SDS011;12268;52.110;5.548;2022-12-07T06:20:14;6.40;;;2.05;;
24084;SDS011;12268;52.110;5.548;2022-12-07T06:22:40;3.30;;;1.50;;
24084;SDS011;12268;52.110;5.548;2022-12-07T06:25:06;3.78;;;2.17;;
24084;SDS011;12268;52.110;5.548;2022-12-07T06:27:32;12.68;;;2.05;;
24084;SDS011;12268;52.110;5.548;2022-12-07T06:29:58;9.65;;;2.20;;
24084;SDS011;12268;52.110;5.548;2022-12-07T06:32:23;9.95;;;2.00;;
24084;SDS011;12268;52.110;5.548;2022-12-07T06:34:49;6.88;;;1.60;;
24084;SDS011;12268;52.110;5.548;2022-12-07T06:37:14;5.78;;;1.80;;
24084;SDS011;12268;52.110;5.548;2022-12-07T06:39:40;10.10;;;1.60;;
24084;SDS011;12268;52.110;5.548;2022-12-07T06:42:05;8.57;;;1.83;;
24084;SDS011;12268;52.110;5.548;2022-12-07T06:44:31;9.65;;;1.75;;
24084;SDS011;12268;52.110;5.548;2022-12-07T06:46:57;4.22;;;1.67;;
24084;SDS011;12268;52.110;5.548;2022-12-07T06:49:23;10.25;;;2.10;;
24084;SDS011;12268;52.110;5.548;2022-12-07T06:51:48;8.07;;;1.80;;
24084;SDS011;12268;52.110;5.548;2022-12-07T06:54:15;9.77;;;1.60;;
24084;SDS011;12268;52.110;5.548;2022-12-07T06:56:40;10.73;;;2.20;;
24084;SDS011;12268;52.110;5.548;2022-12-07T06:59:06;5.25;;;1.95;;
24084;SDS011;12268;52.110;5.548;2022-12-07T07:01:33;14.77;;;2.10;;
24084;SDS011;12268;52.110;5.548;2022-12-07T07:14:21;8.45;;;1.80;;
24084;SDS011;12268;52.110;5.548;2022-12-07T07:16:46;8.00;;;2.10;;
24084;SDS011;12268;52.110;5.548;2022-12-07T07:19:12;6.57;;;1.88;;
24084;SDS011;12268;52.110;5.548;2022-12-07T07:21:37;3.90;;;2.22;;
24084;SDS011;12268;52.110;5.548;2022-12-07T07:24:03;5.55;;;2.03;;
24084;SDS011;12268;52.110;5.548;2022-12-07T07:26:29;4.80;;;2.15;;
24084;SDS011;12268;52.110;5.548;2022-12-07T07:28:55;4.38;;;2.40;;
24084;SDS011;12268;52.110;5.548;2022-12-07T07:31:20;6.95;;;1.98;;
24084;SDS011;12268;52.110;5.548;2022-12-07T07:33:46;9.38;;;2.28;;
24084;SDS011;12268;52.110;5.548;2022-12-07T07:36:12;7.00;;;2.28;;
24084;SDS011;12268;52.110;5.548;2022-12-07T07:38:38;7.93;;;2.30;;
24084;SDS011;12268;52.110;5.548;2022-12-07T07:41:04;10.98;;;2.70;;
24084;SDS011;12268;52.110;5.548;2022-12-07T07:43:29;4.90;;;2.63;;
24084;SDS011;12268;52.110;5.548;2022-12-07T07:45:55;7.35;;;2.72;;
24084;SDS011;12268;52.110;5.548;2022-12-07T07:48:20;9.38;;;2.20;;
24084;SDS011;12268;52.110;5.548;2022-12-07T07:50:47;7.07;;;2.33;;
24084;SDS011;12268;52.110;5.548;2022-12-07T07:53:13;3.60;;;2.50;;
24084;SDS011;12268;52.110;5.548;2022-12-07T07:55:38;7.78;;;2.33;;
24084;SDS011;12268;52.110;5.548;2022-12-07T07:58:04;10.45;;;2.42;;
24084;SDS011;12268;52.110;5.548;2022-12-07T08:00:29;7.88;;;2.50;;
24084;SDS011;12268;52.110;5.548;2022-12-07T08:02:55;7.13;;;2.65;;
24084;SDS011;12268;52.110;5.548;2022-12-07T08:05:21;6.38;;;2.20;;
24084;SDS011;12268;52.110;5.548;2022-12-07T08:07:46;9.07;;;2.72;;
24084;SDS011;12268;52.110;5.548;2022-12-07T08:10:12;6.95;;;2.53;;
24084;SDS011;12268;52.110;5.548;2022-12-07T08:12:39;8.73;;;2.42;;
24084;SDS011;12268;52.110;5.548;2022-12-07T08:15:26;6.90;;;2.40;;
24084;SDS011;12268;52.110;5.548;2022-12-07T08:17:53;5.55;;;2.35;;
24084;SDS011;12268;52.110;5.548;2022-12-07T08:20:19;3.92;;;2.25;;
24084;SDS011;12268;52.110;5.548;2022-12-07T08:22:44;6.97;;;2.40;;
24084;SDS011;12268;52.110;5.548;2022-12-07T08:25:10;8.25;;;2.50;;
24084;SDS011;12268;52.110;5.548;2022-12-07T08:27:35;9.68;;;2.50;;
24084;SDS011;12268;52.110;5.548;2022-12-07T08:30:01;7.60;;;2.70;;
24084;SDS011;12268;52.110;5.548;2022-12-07T08:32:27;8.50;;;3.05;;
24084;SDS011;12268;52.110;5.548;2022-12-07T08:34:52;8.68;;;2.67;;
24084;SDS011;12268;52.110;5.548;2022-12-07T08:37:18;10.13;;;2.83;;
24084;SDS011;12268;52.110;5.548;2022-12-07T08:39:43;10.18;;;2.97;;
24084;SDS011;12268;52.110;5.548;2022-12-07T08:42:09;13.25;;;3.33;;
24084;SDS011;12268;52.110;5.548;2022-12-07T08:44:34;8.82;;;3.05;;
24084;SDS011;12268;52.110;5.548;2022-12-07T08:47:01;12.95;;;3.03;;
24084;SDS011;12268;52.110;5.548;2022-12-07T08:49:36;10.18;;;3.05;;
24084;SDS011;12268;52.110;5.548;2022-12-07T08:52:08;11.48;;;3.13;;
24084;SDS011;12268;52.110;5.548;2022-12-07T08:54:34;14.02;;;2.78;;
24084;SDS011;12268;52.110;5.548;2022-12-07T08:57:02;6.25;;;2.90;;
24084;SDS011;12268;52.110;5.548;2022-12-07T08:59:28;7.88;;;2.83;;
24084;SDS011;12268;52.110;5.548;2022-12-07T09:01:54;8.77;;;2.80;;
24084;SDS011;12268;52.110;5.548;2022-12-07T09:04:19;8.18;;;2.95;;
24084;SDS011;12268;52.110;5.548;2022-12-07T09:06:45;11.45;;;2.83;;
24084;SDS011;12268;52.110;5.548;2022-12-07T09:09:12;4.57;;;2.83;;
24084;SDS011;12268;52.110;5.548;2022-12-07T09:11:38;8.13;;;2.85;;
24084;SDS011;12268;52.110;5.548;2022-12-07T09:14:04;4.00;;;2.60;;
24084;SDS011;12268;52.110;5.548;2022-12-07T09:16:30;10.57;;;2.70;;
24084;SDS011;12268;52.110;5.548;2022-12-07T09:18:56;7.10;;;2.25;;
24084;SDS011;12268;52.110;5.548;2022-12-07T09:21:21;5.18;;;2.50;;
24084;SDS011;12268;52.110;5.548;2022-12-07T09:23:47;7.90;;;2.88;;
24084;SDS011;12268;52.110;5.548;2022-12-07T09:26:12;4.35;;;2.08;;
24084;SDS011;12268;52.110;5.548;2022-12-07T09:28:38;12.18;;;2.63;;
24084;SDS011;12268;52.110;5.548;2022-12-07T09:31:04;9.90;;;3.88;;
24084;SDS011;12268;52.110;5.548;2022-12-07T09:33:30;9.18;;;3.25;;
24084;SDS011;12268;52.110;5.548;2022-12-07T09:35:55;10.00;;;3.65;;
24084;SDS011;12268;52.110;5.548;2022-12-07T09:38:21;7.18;;;2.42;;
24084;SDS011;12268;52.110;5.548;2022-12-07T09:40:47;8.57;;;2.40;;
24084;SDS011;12268;52.110;5.548;2022-12-07T09:43:13;9.20;;;2.95;;
24084;SDS011;12268;52.110;5.548;2022-12-07T09:45:45;6.95;;;2.13;;
24084;SDS011;12268;52.110;5.548;2022-12-07T09:48:34;10.43;;;2.08;;
24084;SDS011;12268;52.110;5.548;2022-12-07T09:51:10;9.38;;;1.98;;
24084;SDS011;12268;52.110;5.548;2022-12-07T09:53:41;4.72;;;1.70;;
24084;SDS011;12268;52.110;5.548;2022-12-07T09:56:08;7.72;;;2.20;;
24084;SDS011;12268;52.110;5.548;2022-12-07T09:58:38;6.75;;;1.95;;
24084;SDS011;12268;52.110;5.548;2022-12-07T10:03:32;6.60;;;2.10;;
24084;SDS011;12268;52.110;5.548;2022-12-07T10:06:06;11.02;;;2.60;;
24084;SDS011;12268;52.110;5.548;2022-12-07T10:08:32;6.07;;;1.65;;
24084;SDS011;12268;52.110;5.548;2022-12-07T10:10:58;6.82;;;1.65;;
24084;SDS011;12268;52.110;5.548;2022-12-07T10:13:35;5.45;;;1.80;;
24084;SDS011;12268;52.110;5.548;2022-12-07T10:16:06;7.25;;;1.88;;
24084;SDS011;12268;52.110;5.548;2022-12-07T10:18:52;5.10;;;1.88;;
24084;SDS011;12268;52.110;5.548;2022-12-07T10:21:19;7.25;;;1.92;;
24084;SDS011;12268;52.110;5.548;2022-12-07T10:26:38;6.20;;;1.80;;
24084;SDS011;12268;52.110;5.548;2022-12-07T10:31:58;4.93;;;1.60;;
24084;SDS011;12268;52.110;5.548;2022-12-07T10:34:47;8.48;;;1.83;;
24084;SDS011;12268;52.110;5.548;2022-12-07T10:39:42;6.05;;;1.60;;
24084;SDS011;12268;52.110;5.548;2022-12-07T10:42:19;8.45;;;1.85;;
24084;SDS011;12268;52.110;5.548;2022-12-07T10:44:50;4.10;;;1.50;;
24084;SDS011;12268;52.110;5.548;2022-12-07T10:47:59;9.48;;;1.60;;
24084;SDS011;12268;52.110;5.548;2022-12-07T10:50:29;5.25;;;2.33;;
24084;SDS011;12268;52.110;5.548;2022-12-07T10:58:23;5.68;;;3.80;;
24084;SDS011;12268;52.110;5.548;2022-12-07T11:01:13;5.93;;;1.83;;
24084;SDS011;12268;52.110;5.548;2022-12-07T11:07:01;14.98;;;6.80;;
24084;SDS011;12268;52.110;5.548;2022-12-07T11:15:29;8.05;;;3.13;;
24084;SDS011;12268;52.110;5.548;2022-12-07T11:18:26;6.90;;;2.90;;
24084;SDS011;12268;52.110;5.548;2022-12-07T11:23:41;6.78;;;1.92;;
24084;SDS011;12268;52.110;5.548;2022-12-07T11:37:08;5.15;;;1.67;;
24084;SDS011;12268;52.110;5.548;2022-12-07T11:39:44;7.22;;;1.75;;
24084;SDS011;12268;52.110;5.548;2022-12-07T11:42:35;7.28;;;2.22;;
24084;SDS011;12268;52.110;5.548;2022-12-07T11:45:13;3.88;;;1.70;;
24084;SDS011;12268;52.110;5.548;2022-12-07T11:47:47;10.18;;;3.15;;
24084;SDS011;12268;52.110;5.548;2022-12-07T11:52:53;7.30;;;2.60;;
24084;SDS011;12268;52.110;5.548;2022-12-07T12:03:49;5.05;;;1.60;;
24084;SDS011;12268;52.110;5.548;2022-12-07T12:06:17;4.15;;;2.60;;
24084;SDS011;12268;52.110;5.548;2022-12-07T12:11:36;5.70;;;1.73;;
24084;SDS011;12268;52.110;5.548;2022-12-07T12:17:15;6.53;;;1.83;;
24084;SDS011;12268;52.110;5.548;2022-12-07T12:22:38;4.78;;;2.10;;
24084;SDS011;12268;52.110;5.548;2022-12-07T12:25:07;6.28;;;1.65;;
24084;SDS011;12268;52.110;5.548;2022-12-07T12:28:05;6.50;;;2.60;;
24084;SDS011;12268;52.110;5.548;2022-12-07T12:30:37;5.63;;;1.88;;
24084;SDS011;12268;52.110;5.548;2022-12-07T12:33:25;4.95;;;1.52;;
24084;SDS011;12268;52.110;5.548;2022-12-07T12:46:52;7.40;;;1.40;;
24084;SDS011;12268;52.110;5.548;2022-12-07T12:56:51;6.53;;;1.52;;
24084;SDS011;12268;52.110;5.548;2022-12-07T13:02:16;6.55;;;1.60;;
24084;SDS011;12268;52.110;5.548;2022-12-07T13:05:16;5.95;;;1.88;;
24084;SDS011;12268;52.110;5.548;2022-12-07T13:10:37;3.45;;;1.40;;
24084;SDS011;12268;52.110;5.548;2022-12-07T13:15:40;10.70;;;2.28;;
24084;SDS011;12268;52.110;5.548;2022-12-07T13:20:58;3.53;;;1.42;;
24084;SDS011;12268;52.110;5.548;2022-12-07T13:26:15;4.63;;;1.52;;
24084;SDS011;12268;52.110;5.548;2022-12-07T13:28:48;3.55;;;1.50;;
24084;SDS011;12268;52.110;5.548;2022-12-07T13:31:33;6.35;;;1.25;;
24084;SDS011;12268;52.110;5.548;2022-12-07T13:34:04;4.95;;;1.50;;
24084;SDS011;12268;52.110;5.548;2022-12-07T13:36:50;5.07;;;1.92;;
24084;SDS011;12268;52.110;5.548;2022-12-07T15:51:12;6.22;;;2.33;;
24084;SDS011;12268;52.110;5.548;2022-12-07T15:53:37;3.58;;;1.80;;
24084;SDS011;12268;52.110;5.548;2022-12-07T15:56:06;4.03;;;1.83;;
24084;SDS011;12268;52.110;5.548;2022-12-07T15:58:33;2.33;;;1.35;;
24084;SDS011;12268;52.110;5.548;2022-12-07T16:00:58;4.85;;;1.63;;
24084;SDS011;12268;52.110;5.548;2022-12-07T16:03:24;3.58;;;1.45;;
24084;SDS011;12268;52.110;5.548;2022-12-07T16:05:50;6.22;;;2.50;;
24084;SDS011;12268;52.110;5.548;2022-12-07T16:08:16;3.63;;;1.95;;
24084;SDS011;12268;52.110;5.548;2022-12-07T16:10:42;4.45;;;1.65;;
24084;SDS011;12268;52.110;5.548;2022-12-07T16:13:08;4.57;;;1.58;;
24084;SDS011;12268;52.110;5.548;2022-12-07T16:15:38;4.97;;;1.88;;
24084;SDS011;12268;52.110;5.548;2022-12-07T16:18:04;4.82;;;1.80;;
24084;SDS011;12268;52.110;5.548;2022-12-07T16:20:30;6.38;;;1.58;;
24084;SDS011;12268;52.110;5.548;2022-12-07T16:22:55;6.30;;;1.90;;
24084;SDS011;12268;52.110;5.548;2022-12-07T16:25:21;6.22;;;1.77;;
24084;SDS011;12268;52.110;5.548;2022-12-07T16:27:46;2.72;;;1.85;;
24084;SDS011;12268;52.110;5.548;2022-12-07T16:30:12;4.90;;;1.60;;
24084;SDS011;12268;52.110;5.548;2022-12-07T16:32:40;2.92;;;1.70;;
24084;SDS011;12268;52.110;5.548;2022-12-07T16:35:05;4.22;;;2.05;;
24084;SDS011;12268;52.110;5.548;2022-12-07T16:37:31;2.85;;;1.60;;
24084;SDS011;12268;52.110;5.548;2022-12-07T16:39:56;4.25;;;1.80;;
24084;SDS011;12268;52.110;5.548;2022-12-07T16:42:22;3.05;;;1.70;;
24084;SDS011;12268;52.110;5.548;2022-12-07T16:44:47;5.30;;;1.42;;
24084;SDS011;12268;52.110;5.548;2022-12-07T16:47:13;3.30;;;1.73;;
24084;SDS011;12268;52.110;5.548;2022-12-07T16:49:38;4.47;;;1.92;;
24084;SDS011;12268;52.110;5.548;2022-12-07T16:52:04;4.75;;;2.00;;
24084;SDS011;12268;52.110;5.548;2022-12-07T16:54:29;6.20;;;2.50;;
24084;SDS011;12268;52.110;5.548;2022-12-07T16:56:58;7.00;;;2.72;;
24084;SDS011;12268;52.110;5.548;2022-12-07T16:59:23;4.80;;;2.30;;
24084;SDS011;12268;52.110;5.548;2022-12-07T17:01:49;5.75;;;2.60;;
24084;SDS011;12268;52.110;5.548;2022-12-07T17:04:14;3.28;;;2.30;;
24084;SDS011;12268;52.110;5.548;2022-12-07T17:06:40;10.52;;;2.63;;
24084;SDS011;12268;52.110;5.548;2022-12-07T17:09:05;7.40;;;2.95;;
24084;SDS011;12268;52.110;5.548;2022-12-07T17:11:34;8.77;;;2.45;;
24084;SDS011;12268;52.110;5.548;2022-12-07T17:14:00;4.70;;;2.53;;
24084;SDS011;12268;52.110;5.548;2022-12-07T17:16:45;7.32;;;2.80;;
24084;SDS011;12268;52.110;5.548;2022-12-07T17:19:12;4.45;;;2.63;;
24084;SDS011;12268;52.110;5.548;2022-12-07T17:21:40;6.82;;;2.45;;
24084;SDS011;12268;52.110;5.548;2022-12-07T17:24:06;4.35;;;2.85;;
24084;SDS011;12268;52.110;5.548;2022-12-07T17:26:34;5.97;;;2.88;;
24084;SDS011;12268;52.110;5.548;2022-12-07T17:29:00;7.07;;;2.85;;
24084;SDS011;12268;52.110;5.548;2022-12-07T17:31:26;5.35;;;3.20;;
24084;SDS011;12268;52.110;5.548;2022-12-07T17:33:51;7.72;;;3.20;;
24084;SDS011;12268;52.110;5.548;2022-12-07T17:36:18;8.10;;;3.05;;
24084;SDS011;12268;52.110;5.548;2022-12-07T17:38:46;4.88;;;3.13;;
24084;SDS011;12268;52.110;5.548;2022-12-07T17:41:16;8.13;;;3.10;;
24084;SDS011;12268;52.110;5.548;2022-12-07T17:44:02;10.85;;;3.42;;
24084;SDS011;12268;52.110;5.548;2022-12-07T17:46:29;6.55;;;3.22;;
24084;SDS011;12268;52.110;5.548;2022-12-07T17:48:55;8.50;;;3.55;;
24084;SDS011;12268;52.110;5.548;2022-12-07T17:51:21;9.95;;;3.72;;
24084;SDS011;12268;52.110;5.548;2022-12-07T17:54:06;9.35;;;3.22;;
24084;SDS011;12268;52.110;5.548;2022-12-07T17:56:31;7.38;;;3.13;;
24084;SDS011;12268;52.110;5.548;2022-12-07T17:58:57;4.43;;;2.65;;
24084;SDS011;12268;52.110;5.548;2022-12-07T18:01:22;5.50;;;2.78;;
24084;SDS011;12268;52.110;5.548;2022-12-07T18:03:48;7.57;;;3.13;;
24084;SDS011;12268;52.110;5.548;2022-12-07T18:06:13;8.18;;;2.90;;
24084;SDS011;12268;52.110;5.548;2022-12-07T18:08:39;8.70;;;2.05;;
24084;SDS011;12268;52.110;5.548;2022-12-07T18:11:05;5.28;;;2.47;;
24084;SDS011;12268;52.110;5.548;2022-12-07T18:13:31;4.30;;;2.55;;
24084;SDS011;12268;52.110;5.548;2022-12-07T18:16:01;9.10;;;2.30;;
24084;SDS011;12268;52.110;5.548;2022-12-07T18:18:27;6.53;;;2.83;;
24084;SDS011;12268;52.110;5.548;2022-12-07T18:20:53;8.70;;;3.35;;
24084;SDS011;12268;52.110;5.548;2022-12-07T18:23:18;4.70;;;2.22;;
24084;SDS011;12268;52.110;5.548;2022-12-07T18:25:51;6.65;;;2.20;;
24084;SDS011;12268;52.110;5.548;2022-12-07T18:28:17;5.07;;;2.30;;
24084;SDS011;12268;52.110;5.548;2022-12-07T18:30:43;4.60;;;2.42;;
24084;SDS011;12268;52.110;5.548;2022-12-07T18:33:18;6.55;;;2.65;;
24084;SDS011;12268;52.110;5.548;2022-12-07T18:35:45;6.82;;;2.97;;
24084;SDS011;12268;52.110;5.548;2022-12-07T18:38:12;4.88;;;2.58;;
24084;SDS011;12268;52.110;5.548;2022-12-07T18:40:41;8.00;;;3.38;;
24084;SDS011;12268;52.110;5.548;2022-12-07T18:43:07;5.88;;;3.00;;
24084;SDS011;12268;52.110;5.548;2022-12-07T18:45:34;7.47;;;3.13;;
24084;SDS011;12268;52.110;5.548;2022-12-07T18:48:00;10.05;;;2.78;;
24084;SDS011;12268;52.110;5.548;2022-12-07T18:50:26;6.70;;;3.05;;
24084;SDS011;12268;52.110;5.548;2022-12-07T18:52:51;6.20;;;3.13;;
24084;SDS011;12268;52.110;5.548;2022-12-07T18:55:17;5.80;;;3.10;;
24084;SDS011;12268;52.110;5.548;2022-12-07T18:57:42;7.68;;;3.85;;
24084;SDS011;12268;52.110;5.548;2022-12-07T19:00:09;6.68;;;3.10;;
24084;SDS011;12268;52.110;5.548;2022-12-07T19:02:35;7.82;;;3.67;;
24084;SDS011;12268;52.110;5.548;2022-12-07T19:05:00;7.82;;;4.00;;
24084;SDS011;12268;52.110;5.548;2022-12-07T19:07:26;7.13;;;3.88;;
24084;SDS011;12268;52.110;5.548;2022-12-07T19:09:52;9.02;;;4.50;;
24084;SDS011;12268;52.110;5.548;2022-12-07T19:12:17;8.35;;;4.18;;